This is the latest recevied weather packets stored in our database for station/object N0EDB-13. If no packets are shown the sender has not sent any weather packets the latest 10 day(s).
| Time | Temp. | Humidity | Pressure | Rain* | Wind** | Luminosity | Snow |
|---|---|---|---|---|---|---|---|
| 1777738373 | 15.56° C | 28% | 1494.6 hPa | 0 mm | - | 758 W/m² | - |
| 1777738072 | 15.56° C | 29% | 1495.8 hPa | 0 mm | - | 744 W/m² | - |
| 1777737771 | 15° C | 31% | 1497.1 hPa | 0 mm | - | 729 W/m² | - |
| 1777737470 | 14.44° C | 32% | 1498.4 hPa | 0 mm | - | 714 W/m² | - |
| 1777737170 | 14.44° C | 32% | 1499.4 hPa | 0 mm | - | 698 W/m² | - |
| 1777736869 | 13.33° C | 34% | 1501.1 hPa | 0 mm | - | 683 W/m² | - |
| 1777736568 | 12.78° C | 35% | 1502.7 hPa | 0 mm | - | 667 W/m² | - |
| 1777736267 | 12.22° C | 36% | 1504.3 hPa | 0 mm | - | 652 W/m² | - |
| 1777735967 | 12.22° C | 37% | 1505.8 hPa | 0 mm | - | 636 W/m² | - |
| 1777735666 | 11.11° C | 39% | 1507.9 hPa | 0 mm | - | 620 W/m² | - |
| 1777735365 | 10.56° C | 40% | 1509.4 hPa | 0 mm | - | 604 W/m² | - |
| 1777735064 | 10.56° C | 42% | 1510.7 hPa | 0 mm | - | 549 W/m² | - |
| 1777734763 | 10° C | 43% | 1512.2 hPa | 0 mm | - | 63 W/m² | - |
| 1777734462 | 9.44° C | 46% | 1513.5 hPa | 0 mm | - | 62 W/m² | - |
| 1777734162 | 8.89° C | 48% | 1514.2 hPa | 0 mm | - | 61 W/m² | - |
| 1777733861 | 8.89° C | 48% | 1514.9 hPa | 0 mm | - | 61 W/m² | - |
| 1777733560 | 8.89° C | 50% | 1516 hPa | 0 mm | - | 59 W/m² | - |
| 1777733260 | 8.33° C | 51% | 1517.4 hPa | 0 mm | - | 59 W/m² | - |
| 1777732959 | 7.78° C | 52% | 1518.4 hPa | 0 mm | - | 58 W/m² | - |
| 1777732659 | 7.78° C | 52% | 1519.4 hPa | 0 mm | - | 57 W/m² | - |
| 1777732358 | 7.22° C | 54% | 1520.3 hPa | 0 mm | - | 56 W/m² | - |
| 1777732058 | 6.67° C | 53% | 1521.1 hPa | 0 mm | - | 56 W/m² | - |
| 1777731758 | 6.67° C | 54% | 1522 hPa | 0 mm | - | 55 W/m² | - |
| 1777731457 | 6.11° C | 56% | 1523 hPa | 0 mm | - | 54 W/m² | - |
| 1777731157 | 6.11° C | 54% | 1523.7 hPa | 0 mm | - | 54 W/m² | - |
* Rain latest hour (hover to see other rain measurements)
** Current wind speed in m/s (hover to see current wind gust speed)